KASX/ASX METAR and TAF weather

Enter ICAO airport designator
Station Type Date Time Source
KASX METAR 2022/10/01 06:53 UTC NOAA

KASX 010653Z AUTO 00000KT 10SM FEW120 08/07 A3022 RMK AO2 SLP234 T00780072


Station Type Date Time Source
KASX Decoded METAR 2022/10/01 06:53 UTC NOAA

ASHLAND KENNEDY MEMORIAL, WI, United States (KASX) 46-33N 090-55W 251M
Oct 01, 2022 - 02:53 AM EDT / 2022.10.01 0653 UTC
Wind: Calm:0
Visibility: 10 mile(s):0
Sky conditions: mostly clear
Temperature: 46.0 F (7.8 C)
Dew Point: 45.0 F (7.2 C)
Relative Humidity: 95%
Pressure (altimeter): 30.22 in. Hg (1023 hPa)
ob: KASX 010653Z AUTO 00000KT 10SM FEW120 08/07 A3022 RMK AO2 SLP234 T00780072
cycle: 7

Station Type Date Time Source
KASX TAF UTC NOAA

Error!

Example: see airport list